aviador You're here:

KGED Decoded Metar

GEORGETOWN in DE, USA
Report Time2018-01-19 10:54:00
UTC Time2018-01-19 11:16:27
Flight Rules vfr VFR
WindCalm
Visibility9999 m
Phenomena:N/A
Clouds:N/A
Expected CloudBase > 1,200 ft AGL from Temp-Dew spread
CeilingNone
Temp-6°C (ISA -21)
Dew Point-9°C (80% RH)
AAT-9.0°C
QNH1020 hPa
Density Alt-2,723 ft
Elevation62 ft
Report Wrong Elevation
Raw Report
KGED 191054Z AUTO 00000KT 10SM CLR M06/M09 A3011 RMK AO2 SLP196
T10561094=

Extra information for KGED:More info

Metar Taf Metar & Taf Last 4 Metars F.Rules Stats Wind Profile Meteogram Temp Stats Airport Information Weather charts Add Link Nearby VenuesMetar ALERT Operation Metar Decoded Social comments

AIRNAV info for KGED